Time;durP1;ratioP1;P1;durP2;ratioP2;P2;SDS_P1;SDS_P2;PMS_P1;PMS_P2;Temp;Humidity;BMP_temperature;BMP_pressure;BME280_temperature;BME280_humidity;BME280_pressure;Samples;Min_cycle;Max_cycle;Signal;HPM_P1;HPM_P2
2023/09/05 00:02:03;;;;;;;0.10;0.10;;;;;;;17.57;100.00;99754.88;5113106;28;20348;-54
2023/09/05 00:04:49;;;;;;;0.10;0.10;;;;;;;17.44;100.00;99750.50;5115068;28;20724;-54
2023/09/05 00:07:37;;;;;;;0.10;0.10;;;;;;;17.45;100.00;99743.31;5116779;28;20186;-54
2023/09/05 00:10:25;;;;;;;0.10;0.10;;;;;;;17.45;100.00;99746.84;5116878;28;20283;-54
2023/09/05 00:13:14;;;;;;;0.10;0.10;;;;;;;17.42;100.00;99749.78;5116460;28;20221;-54
2023/09/05 00:16:01;;;;;;;0.20;0.20;;;;;;;17.40;100.00;99745.53;5116761;28;20324;-54
2023/09/05 00:18:48;;;;;;;0.10;0.10;;;;;;;17.43;100.00;99746.13;5116675;28;20205;-54
2023/09/05 00:21:35;;;;;;;0.10;0.10;;;;;;;17.57;100.00;99744.16;5115483;28;20247;-54
2023/09/05 00:24:27;;;;;;;0.10;0.10;;;;;;;17.62;100.00;99747.28;5114977;28;20198;-54
2023/09/05 00:27:16;;;;;;;0.10;0.10;;;;;;;17.38;100.00;99740.31;5116495;28;20202;-54
2023/09/05 00:30:03;;;;;;;0.10;0.10;;;;;;;17.25;100.00;99742.28;5116478;28;20231;-54
2023/09/05 00:32:50;;;;;;;0.10;0.10;;;;;;;17.12;100.00;99736.25;5115002;28;20217;-54
2023/09/05 00:35:37;;;;;;;0.10;0.10;;;;;;;17.04;100.00;99739.56;5115334;28;20198;-54
2023/09/05 00:38:24;;;;;;;0.10;0.10;;;;;;;17.04;100.00;99736.88;5113929;28;20202;-54
2023/09/05 00:41:11;;;;;;;0.10;0.10;;;;;;;16.97;100.00;99746.38;5115039;28;20197;-54
2023/09/05 00:43:59;;;;;;;0.10;0.10;;;;;;;16.93;100.00;99746.75;5116251;28;20274;-54
2023/09/05 00:46:47;;;;;;;0.10;0.10;;;;;;;16.91;100.00;99743.38;5116021;28;20201;-54
2023/09/05 00:49:47;;;;;;;0.10;0.10;;;;;;;16.79;100.00;99737.16;5115871;28;20209;-54
2023/09/05 00:52:36;;;;;;;0.10;0.10;;;;;;;16.97;100.00;99734.81;5115795;28;20214;-54
2023/09/05 00:55:23;;;;;;;0.20;0.20;;;;;;;16.95;100.00;99732.28;5115938;28;20264;-54
2023/09/05 00:58:11;;;;;;;0.20;0.20;;;;;;;17.00;100.00;99738.13;5115943;28;20233;-54
2023/09/05 01:01:00;;;;;;;0.10;0.10;;;;;;;16.99;100.00;99738.25;5114894;28;20679;-54
2023/09/05 01:03:46;;;;;;;0.10;0.10;;;;;;;16.81;100.00;99746.78;5115634;28;20668;-54
2023/09/05 01:06:54;;;;;;;0.10;0.10;;;;;;;16.87;100.00;99740.06;5114755;28;20198;-54
2023/09/05 01:09:49;;;;;;;0.10;0.10;;;;;;;16.81;100.00;99737.91;5114587;28;20738;-54
2023/09/05 01:12:36;;;;;;;0.10;0.10;;;;;;;16.88;100.00;99737.25;5115357;28;20214;-54
2023/09/05 01:15:23;;;;;;;0.10;0.10;;;;;;;16.90;100.00;99734.47;5114749;28;20271;-54
2023/09/05 01:18:12;;;;;;;0.10;0.10;;;;;;;16.92;100.00;99737.88;5115487;28;20194;-54
2023/09/05 01:21:11;;;;;;;0.10;0.10;;;;;;;16.99;100.00;99736.41;5114487;28;20194;-54
2023/09/05 01:24:14;;;;;;;0.10;0.10;;;;;;;17.06;100.00;99736.75;5114172;28;20194;-54
2023/09/05 01:27:03;;;;;;;0.10;0.10;;;;;;;17.09;100.00;99739.19;5115195;28;20224;-54
2023/09/05 01:29:51;;;;;;;0.10;0.10;;;;;;;16.97;100.00;99742.84;5114334;28;20199;-54
2023/09/05 01:32:38;;;;;;;0.10;0.10;;;;;;;17.02;100.00;99738.84;5115286;28;20667;-54
2023/09/05 01:35:25;;;;;;;0.10;0.10;;;;;;;17.04;100.00;99731.53;5115127;28;20194;-54
2023/09/05 01:38:13;;;;;;;0.10;0.10;;;;;;;16.98;100.00;99725.81;5112798;28;20194;-54
2023/09/05 01:41:02;;;;;;;0.10;0.10;;;;;;;16.86;100.00;99730.34;5115053;28;20704;-54
2023/09/05 01:43:49;;;;;;;0.10;0.10;;;;;;;16.81;100.00;99724.53;5114916;28;20669;-54
2023/09/05 01:46:38;;;;;;;0.10;0.10;;;;;;;16.71;100.00;99727.09;5114971;28;20197;-55
2023/09/05 01:49:25;;;;;;;0.10;0.10;;;;;;;16.73;100.00;99719.78;5113930;28;20194;-54
2023/09/05 01:52:11;;;;;;;0.10;0.10;;;;;;;16.57;100.00;99720.13;5114624;28;20190;-54
2023/09/05 01:54:58;;;;;;;0.10;0.10;;;;;;;16.44;100.00;99710.53;5112447;28;20194;-54
2023/09/05 01:57:46;;;;;;;0.10;0.10;;;;;;;16.57;100.00;99716.59;5114738;28;20296;-54
2023/09/05 02:00:33;;;;;;;0.10;0.10;;;;;;;16.61;100.00;99720.75;5113646;28;20194;-54
2023/09/05 02:03:20;;;;;;;0.20;0.20;;;;;;;16.57;100.00;99716.59;5114701;28;20182;-54
2023/09/05 02:06:07;;;;;;;0.10;0.10;;;;;;;16.55;100.00;99713.19;5114556;28;20722;-54
2023/09/05 02:08:54;;;;;;;0.10;0.10;;;;;;;16.51;100.00;99699.22;5113100;28;20209;-54
2023/09/05 02:11:41;;;;;;;0.10;0.10;;;;;;;16.51;100.00;99703.72;5113461;28;20312;-54
2023/09/05 02:14:29;;;;;;;0.10;0.10;;;;;;;16.56;100.00;99704.19;5113123;28;20252;-54
2023/09/05 02:17:20;;;;;;;0.10;0.10;;;;;;;16.79;100.00;99705.03;5114288;28;20309;-54
2023/09/05 02:20:08;;;;;;;0.10;0.10;;;;;;;16.91;100.00;99701.41;5113215;28;20190;-54
2023/09/05 02:22:54;;;;;;;0.10;0.10;;;;;;;17.09;100.00;99696.38;5112853;28;20236;-54
2023/09/05 02:25:42;;;;;;;0.03;0.03;;;;;;;17.04;100.00;99688.69;5114144;28;20669;-54
2023/09/05 02:28:30;;;;;;;0.10;0.10;;;;;;;16.78;100.00;99687.28;5113662;28;20228;-54
2023/09/05 02:31:19;;;;;;;0.10;0.10;;;;;;;16.63;100.00;99694.72;5113031;28;20214;-54
2023/09/05 02:34:05;;;;;;;0.10;0.10;;;;;;;16.53;100.00;99701.78;5112736;28;20217;-54
2023/09/05 02:36:54;;;;;;;0.10;0.10;;;;;;;16.33;100.00;99691.81;5113961;28;20190;-54
2023/09/05 02:39:41;;;;;;;0.10;0.10;;;;;;;16.55;100.00;99691.81;5112553;28;20222;-54
2023/09/05 02:42:30;;;;;;;0.10;0.10;;;;;;;16.60;100.00;99697.66;5113884;28;20185;-54
2023/09/05 02:45:17;;;;;;;0.10;0.10;;;;;;;16.78;100.00;99681.94;5113759;28;20228;-54
2023/09/05 02:48:06;;;;;;;0.10;0.10;;;;;;;16.85;100.00;99678.66;5112918;28;20372;-54
2023/09/05 02:51:03;;;;;;;0.10;0.10;;;;;;;16.85;100.00;99675.13;5112806;28;20202;-54
2023/09/05 02:53:50;;;;;;;0.10;0.10;;;;;;;16.90;100.00;99672.94;5112296;28;20344;-54
2023/09/05 02:56:37;;;;;;;0.10;0.10;;;;;;;16.93;100.00;99674.50;5113300;28;20189;-54
2023/09/05 02:59:24;;;;;;;0.10;0.10;;;;;;;16.88;100.00;99674.88;5113879;28;20252;-54
2023/09/05 03:02:11;;;;;;;0.10;0.10;;;;;;;16.71;100.00;99670.91;5113729;28;20265;-54
2023/09/05 03:04:59;;;;;;;0.10;0.10;;;;;;;16.40;100.00;99682.31;5113084;28;20221;-54
2023/09/05 03:07:46;;;;;;;0.10;0.10;;;;;;;16.17;100.00;99674.31;5111178;28;20308;-54
2023/09/05 03:10:34;;;;;;;0.10;0.10;;;;;;;16.13;100.00;99672.00;5113574;28;20285;-54
2023/09/05 03:13:21;;;;;;;0.10;0.10;;;;;;;16.11;100.00;99676.59;5112183;28;20213;-54
2023/09/05 03:16:08;;;;;;;0.10;0.10;;;;;;;16.14;100.00;99673.72;5113337;28;20611;-54
2023/09/05 03:18:59;;;;;;;0.10;0.10;;;;;;;16.05;100.00;99680.63;5113242;28;20186;-55
2023/09/05 03:21:47;;;;;;;0.20;0.20;;;;;;;16.09;100.00;99682.06;5113243;28;20202;-54
2023/09/05 03:24:34;;;;;;;0.10;0.10;;;;;;;15.77;100.00;99675.72;5111129;28;20190;-54
2023/09/05 03:27:21;;;;;;;0.10;0.10;;;;;;;15.66;100.00;99680.06;5112324;28;20193;-54
2023/09/05 03:30:09;;;;;;;0.10;0.10;;;;;;;15.90;100.00;99679.13;5112283;28;20301;-54
2023/09/05 03:32:56;;;;;;;0.10;0.10;;;;;;;15.73;100.00;99688.47;5112123;28;20260;-54
2023/09/05 03:35:43;;;;;;;0.10;0.10;;;;;;;15.88;100.00;99689.09;5113353;28;20218;-54
2023/09/05 03:38:31;;;;;;;0.10;0.10;;;;;;;15.82;100.00;99690.41;5113610;28;20627;-54
2023/09/05 03:41:17;;;;;;;0.10;0.10;;;;;;;15.83;100.00;99691.28;5117348;28;20194;-54
2023/09/05 03:44:05;;;;;;;0.10;0.10;;;;;;;15.78;100.00;99691.63;5117363;28;20186;-54
2023/09/05 03:46:52;;;;;;;0.10;0.10;;;;;;;15.82;100.00;99687.75;5116205;28;20248;-54
2023/09/05 03:49:39;;;;;;;0.10;0.10;;;;;;;15.78;100.00;99682.75;5116339;28;20210;-54
2023/09/05 03:52:26;;;;;;;0.10;0.10;;;;;;;15.99;100.00;99678.41;5117228;28;20313;-54
2023/09/05 03:55:14;;;;;;;0.10;0.10;;;;;;;16.01;100.00;99673.81;5116732;28;20675;-54
2023/09/05 03:58:01;;;;;;;0.10;0.10;;;;;;;16.10;100.00;99677.56;5117182;28;20252;-54
2023/09/05 04:00:49;;;;;;;0.10;0.10;;;;;;;15.80;100.00;99688.81;5117030;28;20201;-54
2023/09/05 04:03:36;;;;;;;0.10;0.10;;;;;;;16.01;100.00;99685.34;5115747;28;20194;-54
2023/09/05 04:06:23;;;;;;;0.10;0.10;;;;;;;15.92;100.00;99679.84;5116846;28;20229;-54
2023/09/05 04:09:10;;;;;;;0.10;0.10;;;;;;;15.93;100.00;99678.91;5115484;28;20193;-54
2023/09/05 04:11:58;;;;;;;0.10;0.10;;;;;;;15.92;100.00;99677.19;5116726;28;20198;-54
2023/09/05 04:14:45;;;;;;;0.20;0.20;;;;;;;15.70;100.00;99675.34;5116535;28;20210;-54
2023/09/05 04:17:32;;;;;;;0.10;0.10;;;;;;;15.64;100.00;99689.19;5116729;28;20186;-53
2023/09/05 04:20:19;;;;;;;0.10;0.10;;;;;;;15.56;100.00;99673.69;5116576;28;20194;-54
2023/09/05 04:23:05;;;;;;;0.10;0.10;;;;;;;15.50;100.00;99676.81;5114397;28;20197;-54
2023/09/05 04:25:57;;;;;;;0.10;0.10;;;;;;;15.52;100.00;99680.22;5115727;28;20271;-54
2023/09/05 04:28:46;;;;;;;0.10;0.10;;;;;;;15.40;100.00;99686.50;5116542;28;20201;-54
2023/09/05 04:31:32;;;;;;;0.10;0.10;;;;;;;15.28;100.00;99682.94;5116435;28;20293;-54
2023/09/05 04:34:19;;;;;;;0.10;0.10;;;;;;;15.35;100.00;99681.53;5115965;28;20299;-53
2023/09/05 04:37:06;;;;;;;0.10;0.10;;;;;;;15.39;100.00;99682.13;5115338;28;20224;-54
2023/09/05 04:39:54;;;;;;;0.10;0.10;;;;;;;15.44;100.00;99685.28;5114025;28;20267;-54
2023/09/05 04:42:40;;;;;;;0.10;0.10;;;;;;;15.59;100.00;99689.47;5115214;28;20194;-54
2023/09/05 04:45:29;;;;;;;0.10;0.10;;;;;;;15.56;100.00;99687.06;5116088;28;20198;-54
2023/09/05 04:48:15;;;;;;;0.10;0.10;;;;;;;15.64;100.00;99686.50;5116090;28;20194;-54
2023/09/05 04:51:03;;;;;;;0.10;0.10;;;;;;;15.56;100.00;99689.72;5115359;28;20194;-54
2023/09/05 04:53:51;;;;;;;0.10;0.10;;;;;;;15.72;100.00;99678.72;5114551;28;20272;-54
2023/09/05 04:56:37;;;;;;;0.10;0.10;;;;;;;15.69;100.00;99684.31;5115884;28;20676;-54
2023/09/05 04:59:24;;;;;;;0.10;0.10;;;;;;;15.78;100.00;99677.41;5115880;28;20186;-54
2023/09/05 05:02:13;;;;;;;0.10;0.10;;;;;;;15.86;100.00;99680.34;5115328;28;20202;-54
2023/09/05 05:05:00;;;;;;;0.10;0.10;;;;;;;15.65;100.00;99678.38;5115761;28;20222;-54
2023/09/05 05:07:47;;;;;;;0.10;0.10;;;;;;;15.60;100.00;99679.66;5114386;28;20202;-54
2023/09/05 05:10:33;;;;;;;0.10;0.10;;;;;;;16.08;100.00;99690.22;5115644;28;20240;-54
2023/09/05 05:13:20;;;;;;;0.10;0.10;;;;;;;15.92;100.00;99699.44;5115594;28;20194;-54
2023/09/05 05:16:07;;;;;;;0.20;0.20;;;;;;;15.96;100.00;99692.03;5115247;28;20218;-54
2023/09/05 05:18:56;;;;;;;0.10;0.10;;;;;;;16.20;100.00;99697.25;5115512;28;20321;-54
2023/09/05 05:21:43;;;;;;;0.10;0.10;;;;;;;16.14;100.00;99689.75;5115151;28;20198;-54
2023/09/05 05:24:29;;;;;;;0.10;0.10;;;;;;;16.20;100.00;99694.59;5113746;28;20198;-54
2023/09/05 05:27:16;;;;;;;0.10;0.10;;;;;;;16.17;100.00;99693.03;5115015;28;20190;-54
2023/09/05 05:30:05;;;;;;;0.10;0.10;;;;;;;16.01;100.00;99697.84;5115256;28;20194;-54
2023/09/05 05:32:53;;;;;;;0.10;0.10;;;;;;;15.98;100.00;99698.09;5113664;28;20270;-54
2023/09/05 05:35:41;;;;;;;0.10;0.10;;;;;;;16.18;100.00;99697.38;5113495;28;20724;-54
2023/09/05 05:38:28;;;;;;;0.10;0.10;;;;;;;16.24;100.00;99702.25;5113395;28;20323;-54
2023/09/05 05:41:15;;;;;;;0.10;0.10;;;;;;;16.32;100.00;99704.34;5115039;28;20198;-54
2023/09/05 05:44:02;;;;;;;0.10;0.10;;;;;;;16.37;100.00;99698.63;5114753;28;20198;-54
2023/09/05 05:46:48;;;;;;;0.10;0.10;;;;;;;16.43;100.00;99706.16;5114910;28;20529;-55
2023/09/05 05:49:35;;;;;;;0.10;0.10;;;;;;;16.53;100.00;99704.47;5114683;28;20205;-54
2023/09/05 05:52:24;;;;;;;0.10;0.10;;;;;;;16.72;100.00;99694.00;5114939;28;20190;-54
2023/09/05 05:55:12;;;;;;;0.10;0.10;;;;;;;16.78;100.00;99709.53;5114408;28;20218;-54
2023/09/05 05:58:00;;;;;;;0.10;0.10;;;;;;;16.98;100.00;99696.38;5114674;28;20189;-54
2023/09/05 06:00:50;;;;;;;0.10;0.10;;;;;;;17.03;100.00;99699.53;5114475;28;20202;-54
2023/09/05 06:03:37;;;;;;;0.10;0.10;;;;;;;17.19;100.00;99693.78;5114592;28;20669;-54
2023/09/05 06:06:24;;;;;;;0.10;0.10;;;;;;;17.22;100.00;99699.72;5114309;28;20189;-54
2023/09/05 06:09:13;;;;;;;0.10;0.10;;;;;;;17.33;100.00;99701.50;5113194;28;20202;-54
2023/09/05 06:12:00;;;;;;;0.10;0.10;;;;;;;17.50;100.00;99703.63;5114194;28;20305;-54
2023/09/05 06:14:47;;;;;;;0.10;0.10;;;;;;;17.48;100.00;99710.09;5114341;28;20214;-55
2023/09/05 06:17:33;;;;;;;0.10;0.10;;;;;;;17.53;100.00;99714.06;5113556;28;20198;-54
2023/09/05 06:20:20;;;;;;;0.10;0.10;;;;;;;17.63;100.00;99716.81;5112670;28;20205;-54
2023/09/05 06:23:09;;;;;;;0.10;0.10;;;;;;;17.85;100.00;99711.38;5111627;28;20239;-54
2023/09/05 06:25:58;;;;;;;0.10;0.10;;;;;;;17.99;100.00;99703.00;5114284;28;20235;-54
2023/09/05 06:28:44;;;;;;;0.10;0.10;;;;;;;18.26;100.00;99690.88;5114051;28;20630;-54
2023/09/05 06:31:31;;;;;;;0.10;0.10;;;;;;;18.49;100.00;99696.91;5114132;28;20182;-54
2023/09/05 06:34:18;;;;;;;0.10;0.10;;;;;;;18.64;100.00;99700.94;5113886;28;20193;-54
2023/09/05 06:37:05;;;;;;;0.10;0.10;;;;;;;18.68;100.00;99696.16;5113976;28;20201;-54
2023/09/05 06:39:52;;;;;;;0.10;0.10;;;;;;;18.76;100.00;99697.19;5112433;28;20326;-54
2023/09/05 06:42:40;;;;;;;0.10;0.10;;;;;;;18.83;100.00;99697.50;5114135;28;20332;-54
2023/09/05 06:45:27;;;;;;;0.10;0.10;;;;;;;18.97;100.00;99699.75;5113741;28;20202;-54
2023/09/05 06:48:14;;;;;;;0.10;0.10;;;;;;;19.11;100.00;99701.22;5113729;28;20280;-55
2023/09/05 06:51:01;;;;;;;0.10;0.10;;;;;;;19.51;100.00;99698.41;5113427;28;20194;-54
2023/09/05 06:53:48;;;;;;;0.10;0.10;;;;;;;19.63;100.00;99693.75;5112457;28;20198;-54
2023/09/05 06:56:35;;;;;;;0.10;0.10;;;;;;;19.70;100.00;99701.13;5113020;28;20234;-54
2023/09/05 06:59:23;;;;;;;0.10;0.10;;;;;;;19.85;100.00;99693.44;5113588;28;20680;-54
2023/09/05 07:02:10;;;;;;;0.10;0.10;;;;;;;19.94;100.00;99691.72;5113307;28;20877;-55
2023/09/05 07:04:57;;;;;;;0.10;0.10;;;;;;;19.94;100.00;99694.41;5113060;28;20358;-55
2023/09/05 07:07:44;;;;;;;0.10;0.10;;;;;;;20.19;100.00;99703.72;5111896;28;20182;-55
2023/09/05 07:10:31;;;;;;;0.10;0.10;;;;;;;20.41;100.00;99706.03;5113496;28;20209;-54
2023/09/05 07:13:18;;;;;;;0.10;0.10;;;;;;;20.38;100.00;99700.97;5112626;28;20218;-55
2023/09/05 07:16:06;;;;;;;0.10;0.10;;;;;;;20.54;100.00;99698.50;5113170;28;20573;-55
2023/09/05 07:18:54;;;;;;;0.10;0.10;;;;;;;20.65;100.00;99700.13;5113141;28;20267;-55
2023/09/05 07:21:41;;;;;;;0.10;0.10;;;;;;;20.78;100.00;99702.50;5113294;28;20236;-55
2023/09/05 07:24:28;;;;;;;0.10;0.10;;;;;;;20.80;100.00;99701.34;5111957;28;20684;-55
2023/09/05 07:27:15;;;;;;;0.10;0.10;;;;;;;20.89;100.00;99702.28;5113297;28;20305;-55
2023/09/05 07:30:02;;;;;;;0.03;0.03;;;;;;;21.06;100.00;99706.03;5111512;28;20201;-54
2023/09/05 07:32:51;;;;;;;0.10;0.10;;;;;;;21.14;100.00;99716.91;5111450;28;20206;-54
2023/09/05 07:35:37;;;;;;;0.10;0.10;;;;;;;21.06;100.00;99720.34;5112098;28;20222;-54
2023/09/05 07:38:24;;;;;;;0.10;0.10;;;;;;;21.20;100.00;99720.81;5111399;28;20236;-54
2023/09/05 07:41:11;;;;;;;0.10;0.10;;;;;;;21.38;100.00;99717.16;5113030;28;20198;-55
2023/09/05 07:43:58;;;;;;;0.10;0.10;;;;;;;21.50;100.00;99720.47;5112967;28;20201;-54
2023/09/05 07:46:45;;;;;;;0.10;0.10;;;;;;;21.60;100.00;99721.25;5112373;28;20313;-54
2023/09/05 07:49:37;;;;;;;0.10;0.10;;;;;;;21.61;100.00;99719.38;5112211;28;20228;-55
2023/09/05 07:52:24;;;;;;;0.10;0.10;;;;;;;21.66;100.00;99717.09;5112126;28;20194;-55
2023/09/05 07:55:11;;;;;;;0.10;0.10;;;;;;;21.76;100.00;99725.94;5112082;28;20209;-54
2023/09/05 07:57:58;;;;;;;0.10;0.10;;;;;;;21.86;100.00;99725.84;5112900;28;20680;-55
2023/09/05 08:00:46;;;;;;;0.10;0.10;;;;;;;22.16;100.00;99721.88;5112871;28;20228;-54
2023/09/05 08:03:33;;;;;;;0.10;0.10;;;;;;;22.18;100.00;99722.56;5112965;28;20225;-54
2023/09/05 08:06:22;;;;;;;0.10;0.10;;;;;;;22.38;100.00;99715.94;5112745;28;20275;-54
2023/09/05 08:09:09;;;;;;;0.10;0.10;;;;;;;22.54;100.00;99713.34;5111644;28;20195;-54
2023/09/05 08:11:56;;;;;;;0.10;0.10;;;;;;;22.51;100.00;99726.31;5112720;28;20214;-55
2023/09/05 08:14:43;;;;;;;0.10;0.10;;;;;;;22.43;100.00;99724.41;5112821;28;20280;-54
2023/09/05 08:17:31;;;;;;;0.10;0.10;;;;;;;22.38;100.00;99729.44;5112235;28;20719;-55
2023/09/05 08:20:18;;;;;;;0.10;0.10;;;;;;;22.56;100.00;99715.88;5112705;28;20202;-55
2023/09/05 08:23:06;;;;;;;0.10;0.10;;;;;;;22.80;100.00;99721.41;5110124;28;20279;-55
2023/09/05 08:25:56;;;;;;;0.10;0.10;;;;;;;22.91;100.00;99731.09;5114484;28;20209;-54
2023/09/05 08:28:45;;;;;;;0.10;0.10;;;;;;;22.89;96.82;99727.72;5115931;28;20287;-55
2023/09/05 08:31:32;;;;;;;0.10;0.10;;;;;;;23.04;97.67;99727.91;5116408;28;20296;-55
2023/09/05 08:34:19;;;;;;;0.10;0.10;;;;;;;23.14;96.35;99715.94;5116126;28;20190;-54
2023/09/05 08:37:06;;;;;;;0.10;0.10;;;;;;;23.31;97.26;99716.00;5116029;28;20214;-55
2023/09/05 08:39:54;;;;;;;0.10;0.10;;;;;;;23.68;96.05;99715.56;5115640;28;20193;-55
2023/09/05 08:42:42;;;;;;;0.10;0.10;;;;;;;23.60;94.80;99720.97;5116245;28;20187;-55
2023/09/05 08:45:32;;;;;;;0.10;0.10;;;;;;;23.81;92.95;99709.63;5116014;28;20228;-55
2023/09/05 08:48:19;;;;;;;0.10;0.10;;;;;;;24.17;90.35;99707.41;5115078;28;20268;-55
2023/09/05 08:51:10;;;;;;;0.00;0.00;;;;;;;23.99;90.63;99708.44;5115962;28;20201;-54
2023/09/05 08:54:01;;;;;;;0.10;0.10;;;;;;;24.02;90.87;99712.66;5114752;28;20260;-55
2023/09/05 08:56:49;;;;;;;0.10;0.10;;;;;;;24.06;91.85;99715.91;5115644;28;20423;-55
2023/09/05 08:59:36;;;;;;;0.10;0.10;;;;;;;24.37;91.26;99713.31;5115893;28;20565;-55
2023/09/05 09:02:23;;;;;;;0.00;0.00;;;;;;;24.38;88.16;99709.59;5115093;28;20557;-55
2023/09/05 09:05:10;;;;;;;0.10;0.10;;;;;;;24.57;86.97;99706.50;5114483;28;20220;-55
2023/09/05 09:07:57;;;;;;;0.10;0.10;;;;;;;24.51;85.86;99710.75;5114127;28;20358;-55
2023/09/05 09:10:44;;;;;;;0.00;0.00;;;;;;;24.79;85.95;99708.41;5115732;28;20328;-55
2023/09/05 09:13:33;;;;;;;0.10;0.10;;;;;;;24.81;84.63;99706.41;5115394;28;20229;-55
2023/09/05 09:16:20;;;;;;;0.10;0.10;;;;;;;25.37;83.31;99707.13;5115064;28;20226;-55
2023/09/05 09:19:07;;;;;;;0.10;0.10;;;;;;;25.24;81.59;99708.75;5114367;28;20201;-55
2023/09/05 09:21:53;;;;;;;0.10;0.10;;;;;;;25.30;81.05;99706.16;5115453;28;20198;-55
2023/09/05 09:24:40;;;;;;;0.10;0.10;;;;;;;25.43;76.65;99708.28;5113837;28;20194;-55
2023/09/05 09:27:27;;;;;;;0.08;0.08;;;;;;;25.48;76.87;99715.84;5115323;28;20206;-55
2023/09/05 09:30:16;;;;;;;0.10;0.10;;;;;;;25.64;75.13;99704.88;5114897;28;20763;-55
2023/09/05 09:33:02;;;;;;;0.10;0.10;;;;;;;25.88;75.13;99699.31;5115140;28;20683;-55
2023/09/05 09:36:06;;;;;;;0.00;0.00;;;;;;;26.22;72.86;99701.50;5114821;28;20217;-55
2023/09/05 09:38:55;;;;;;;0.10;0.10;;;;;;;26.22;70.35;99689.78;5113695;28;20718;-55
2023/09/05 09:41:43;;;;;;;0.00;0.00;;;;;;;26.50;69.65;99698.19;5115156;28;20202;-55
2023/09/05 09:44:32;;;;;;;0.00;0.00;;;;;;;26.51;69.02;99691.72;5114919;28;20190;-55
2023/09/05 09:47:20;;;;;;;0.00;0.00;;;;;;;26.90;68.50;99699.53;5114956;28;20193;-55
2023/09/05 09:50:09;;;;;;;0.10;0.10;;;;;;;26.94;65.40;99697.31;5114793;28;20269;-55
2023/09/05 09:52:59;;;;;;;0.00;0.00;;;;;;;27.11;64.70;99701.50;5113489;28;20198;-55
2023/09/05 09:55:52;;;;;;;0.10;0.10;;;;;;;27.07;64.35;99679.28;5114736;28;20214;-55
2023/09/05 09:58:41;;;;;;;0.10;0.10;;;;;;;27.53;64.29;99689.00;5114523;28;20233;-55
2023/09/05 10:01:29;;;;;;;0.00;0.00;;;;;;;27.34;63.28;99687.75;5114442;28;20205;-55
2023/09/05 10:04:19;;;;;;;0.10;0.10;;;;;;;27.68;61.92;99684.31;5113653;28;20310;-55
2023/09/05 10:07:08;;;;;;;0.08;0.08;;;;;;;27.97;60.69;99680.59;5114573;28;20217;-55
2023/09/05 10:09:57;;;;;;;0.00;0.00;;;;;;;28.41;58.66;99671.28;5114188;28;20214;-55
2023/09/05 10:12:45;;;;;;;0.00;0.00;;;;;;;28.76;57.08;99675.69;5114331;28;20260;-55
2023/09/05 10:15:33;;;;;;;0.10;0.10;;;;;;;28.64;58.96;99670.97;5114486;28;20259;-55
2023/09/05 10:18:21;;;;;;;0.00;0.00;;;;;;;28.66;55.89;99671.59;5113975;28;20869;-55
2023/09/05 10:21:10;;;;;;;0.00;0.00;;;;;;;28.85;57.92;99662.66;5114172;28;20743;-55
2023/09/05 10:23:57;;;;;;;0.00;0.00;;;;;;;29.45;54.07;99662.88;5112999;28;20210;-55
2023/09/05 10:26:44;;;;;;;0.00;0.00;;;;;;;31.14;47.78;99665.75;5113725;28;20189;-55
2023/09/05 10:29:33;;;;;;;0.00;0.00;;;;;;;32.73;41.86;99657.06;5114089;28;20198;-55
2023/09/05 10:32:22;;;;;;;0.00;0.00;;;;;;;34.47;38.54;99651.41;5114135;28;20305;-56
2023/09/05 10:35:09;;;;;;;0.10;0.10;;;;;;;35.95;35.27;99653.16;5112812;28;20300;-56
2023/09/05 10:38:01;;;;;;;0.00;0.00;;;;;;;36.09;35.02;99645.38;5111439;28;20218;-56
2023/09/05 10:40:47;;;;;;;0.00;0.00;;;;;;;37.36;33.24;99651.75;5113841;28;20288;-56
2023/09/05 10:43:35;;;;;;;0.00;0.00;;;;;;;37.36;33.02;99657.28;5112962;28;20194;-56
2023/09/05 10:46:22;;;;;;;0.00;0.00;;;;;;;38.10;31.69;99651.81;5113161;28;20197;-56
2023/09/05 10:49:11;;;;;;;0.00;0.00;;;;;;;38.97;31.52;99644.78;5113063;28;20236;-56
2023/09/05 10:52:17;;;;;;;0.00;0.00;;;;;;;39.10;30.50;99638.75;5113493;28;20202;-56
2023/09/05 10:55:44;;;;;;;0.00;0.00;;;;;;;39.33;30.58;99631.03;5113347;28;20194;-56
2023/09/05 10:58:42;;;;;;;0.00;0.00;;;;;;;40.39;28.76;99623.78;5112863;28;20213;-56
2023/09/05 11:02:00;;;;;;;0.00;0.00;;;;;;;39.15;29.62;99621.31;5113589;28;20193;-56
2023/09/05 11:04:47;;;;;;;0.00;0.00;;;;;;;39.59;29.33;99623.63;5112903;28;20230;-56
2023/09/05 11:07:41;;;;;;;0.00;0.00;;;;;;;39.26;30.15;99620.22;5112301;28;20269;-56
2023/09/05 11:10:32;;;;;;;0.00;0.00;;;;;;;37.04;32.80;99622.06;5112625;28;20202;-56
2023/09/05 11:13:18;;;;;;;0.00;0.00;;;;;;;38.96;31.39;99623.75;5112489;28;20715;-56
2023/09/05 11:16:07;;;;;;;0.00;0.00;;;;;;;38.49;31.97;99623.81;5113222;28;20189;-56
2023/09/05 11:18:56;;;;;;;0.00;0.00;;;;;;;40.93;28.18;99614.69;5113002;28;20336;-56
2023/09/05 11:21:44;;;;;;;0.00;0.00;;;;;;;42.41;27.22;99614.28;5110174;28;20272;-57
2023/09/05 11:24:31;;;;;;;0.00;0.00;;;;;;;40.04;28.55;99617.19;5111241;28;20219;-57
2023/09/05 11:27:21;;;;;;;0.00;0.00;;;;;;;38.81;29.67;99607.91;5111928;28;20264;-56
2023/09/05 11:30:09;;;;;;;0.00;0.00;;;;;;;38.90;29.58;99609.06;5110872;28;20203;-56
2023/09/05 11:32:58;;;;;;;0.00;0.00;;;;;;;38.99;30.01;99608.50;5111962;28;20197;-56
2023/09/05 11:35:48;;;;;;;0.00;0.00;;;;;;;38.46;30.15;99604.97;5112371;28;20198;-56
2023/09/05 11:38:46;;;;;;;0.00;0.00;;;;;;;38.87;29.73;99606.81;5110258;28;20353;-56
2023/09/05 11:41:39;;;;;;;0.00;0.00;;;;;;;40.78;28.36;99605.28;5112213;28;20194;-56
2023/09/05 11:44:34;;;;;;;0.00;0.00;;;;;;;40.89;27.55;99587.47;5111720;28;20284;-57
2023/09/05 11:47:23;;;;;;;0.00;0.00;;;;;;;40.39;27.74;99604.31;5112604;28;20189;-57
2023/09/05 11:50:13;;;;;;;0.00;0.00;;;;;;;40.52;28.12;99598.19;5111949;28;20198;-57
2023/09/05 11:53:03;;;;;;;0.00;0.00;;;;;;;42.19;26.74;99587.78;5110309;28;20247;-57
2023/09/05 11:55:51;;;;;;;0.00;0.00;;;;;;;40.81;28.21;99579.69;5110809;28;20197;-57
2023/09/05 11:58:38;;;;;;;0.00;0.00;;;;;;;41.68;27.39;99574.34;5111437;28;20220;-57
2023/09/05 12:01:29;;;;;;;0.00;0.00;;;;;;;41.66;26.98;99575.75;5116074;28;20290;-57
2023/09/05 12:04:17;;;;;;;0.00;0.00;;;;;;;40.26;28.03;99572.44;5116062;28;20221;-56
2023/09/05 12:07:09;;;;;;;0.00;0.00;;;;;;;39.98;28.63;99577.50;5114985;28;20205;-56
2023/09/05 12:09:56;;;;;;;0.00;0.00;;;;;;;41.46;27.32;99576.78;5116112;28;20193;-56
2023/09/05 12:12:52;;;;;;;0.00;0.00;;;;;;;42.50;26.73;99565.94;5116026;28;20201;-56
2023/09/05 12:15:39;;;;;;;0.00;0.00;;;;;;;43.15;25.89;99570.94;5116504;28;20190;-56
2023/09/05 12:18:27;;;;;;;0.00;0.00;;;;;;;42.88;25.56;99568.78;5116514;28;20221;-57
2023/09/05 12:21:14;;;;;;;0.00;0.00;;;;;;;42.52;25.62;99563.72;5116385;28;20194;-56
2023/09/05 12:24:23;;;;;;;0.00;0.00;;;;;;;44.35;24.48;99557.03;5115172;28;20201;-57
2023/09/05 12:27:24;;;;;;;0.00;0.00;;;;;;;43.10;25.83;99546.72;5116493;28;20193;-57
2023/09/05 12:30:26;;;;;;;0.00;0.00;;;;;;;43.72;25.02;99546.50;5116298;28;20197;-55
2023/09/05 12:33:13;;;;;;;0.00;0.00;;;;;;;45.24;23.99;99536.00;5116342;28;20198;-55
2023/09/05 12:36:00;;;;;;;0.00;0.00;;;;;;;44.99;24.18;99538.28;5116130;28;20198;-55
2023/09/05 12:38:46;;;;;;;0.00;0.00;;;;;;;44.47;24.48;99534.94;5114851;28;20197;-55
2023/09/05 12:41:35;;;;;;;0.00;0.00;;;;;;;44.37;24.28;99535.19;5116058;28;20201;-55
2023/09/05 12:44:22;;;;;;;0.00;0.00;;;;;;;45.18;24.32;99540.91;5116262;28;20205;-55
2023/09/05 12:47:09;;;;;;;0.00;0.00;;;;;;;45.18;24.00;99538.09;5115775;28;20742;-55
2023/09/05 12:49:57;;;;;;;0.00;0.00;;;;;;;45.99;22.77;99537.94;5116013;28;20197;-55
2023/09/05 12:52:57;;;;;;;0.00;0.00;;;;;;;44.82;24.00;99530.56;5114637;28;20197;-55
2023/09/05 12:55:45;;;;;;;0.00;0.00;;;;;;;44.93;24.37;99527.53;5116074;28;20667;-55
2023/09/05 12:58:32;;;;;;;0.00;0.00;;;;;;;43.47;25.21;99533.03;5115708;28;20197;-54
2023/09/05 13:01:22;;;;;;;0.00;0.00;;;;;;;43.23;25.34;99535.91;5115958;28;20201;-54
2023/09/05 13:04:10;;;;;;;0.00;0.00;;;;;;;44.30;24.11;99522.75;5115340;28;20245;-55
2023/09/05 13:06:57;;;;;;;0.00;0.00;;;;;;;45.06;23.93;99515.44;5115701;28;20198;-55
2023/09/05 13:09:45;;;;;;;0.00;0.00;;;;;;;45.81;23.32;99500.63;5114610;28;20225;-55